createdAt,value
2023-02-02T00:02:27.494Z,99196.56
2023-02-02T00:05:30.068Z,99191.06
2023-02-02T00:08:32.792Z,99187.84
2023-02-02T00:11:35.405Z,99190.00
2023-02-02T00:14:37.936Z,99190.09
2023-02-02T00:17:41.861Z,99170.19
2023-02-02T00:20:45.348Z,99173.78
2023-02-02T00:23:48.154Z,99179.78
2023-02-02T00:26:52.705Z,99176.38
2023-02-02T00:29:57.510Z,99181.88
2023-02-02T00:33:01.409Z,99190.81
2023-02-02T00:36:04.768Z,99179.81
2023-02-02T00:39:08.268Z,99185.88
2023-02-02T00:42:12.254Z,99180.44
2023-02-02T00:45:18.046Z,99171.09
2023-02-02T00:48:22.374Z,99176.56
2023-02-02T00:51:24.993Z,99166.38
2023-02-02T00:54:27.713Z,99177.44
2023-02-02T00:57:30.741Z,99173.00
2023-02-02T01:00:33.506Z,99162.47
2023-02-02T01:03:37.697Z,99168.66
2023-02-02T01:06:40.882Z,99162.63
2023-02-02T01:09:43.769Z,99177.63
2023-02-02T01:12:46.849Z,99181.16
2023-02-02T01:15:49.911Z,99178.41
2023-02-02T01:18:54.127Z,99189.25
2023-02-02T01:21:57.359Z,99184.47
2023-02-02T01:25:00.045Z,99190.81
2023-02-02T01:28:02.651Z,99186.56
2023-02-02T01:31:08.062Z,99193.13
2023-02-02T01:34:11.974Z,99197.47
2023-02-02T01:37:14.656Z,99202.13
2023-02-02T01:40:17.387Z,99199.66
2023-02-02T01:43:25.003Z,99198.72
2023-02-02T01:46:29.518Z,99205.09
2023-02-02T01:49:34.137Z,99206.72
2023-02-02T01:52:37.564Z,99200.91
2023-02-02T01:55:42.473Z,99196.34
2023-02-02T01:58:46.133Z,99200.50
2023-02-02T02:01:49.909Z,99200.69
2023-02-02T02:04:53.870Z,99198.78
2023-02-02T02:08:04.226Z,99193.13
2023-02-02T02:11:08.354Z,99184.03
2023-02-02T02:14:29.616Z,99188.25
2023-02-02T02:17:43.723Z,99183.91
2023-02-02T02:21:22.884Z,99190.94
2023-02-02T02:25:04.393Z,99191.88
2023-02-02T02:28:43.372Z,99190.47
2023-02-02T02:32:02.477Z,99197.38
2023-02-02T02:35:08.163Z,99195.03
2023-02-02T02:38:12.898Z,99197.41
2023-02-02T02:41:22.762Z,99195.00
2023-02-02T02:44:25.820Z,99188.69
2023-02-02T02:47:30.232Z,99189.31
2023-02-02T02:50:32.944Z,99189.31
2023-02-02T02:53:36.330Z,99185.75
2023-02-02T02:56:45.247Z,99187.13
2023-02-02T02:59:54.281Z,99185.50
2023-02-02T03:03:01.972Z,99190.84
2023-02-02T03:06:09.542Z,99190.19
2023-02-02T03:09:14.488Z,99207.25
2023-02-02T03:12:17.618Z,99194.94
2023-02-02T03:15:20.959Z,99203.84
2023-02-02T03:18:27.690Z,99206.00
2023-02-02T03:21:30.426Z,99197.88
2023-02-02T03:24:32.949Z,99200.06
2023-02-02T03:27:35.587Z,99187.00
2023-02-02T03:30:39.005Z,99205.59
2023-02-02T03:33:43.363Z,99192.84
2023-02-02T03:36:46.164Z,99183.66
2023-02-02T03:39:48.809Z,99186.19
2023-02-02T03:42:51.416Z,99206.00
2023-02-02T03:45:58.151Z,99194.19
2023-02-02T03:49:02.244Z,99197.56
2023-02-02T03:52:05.094Z,99209.41
2023-02-02T03:55:08.711Z,99212.88
2023-02-02T04:01:38.273Z,99223.16
2023-02-02T04:04:42.367Z,99223.03
2023-02-02T04:07:44.972Z,99223.44
2023-02-02T04:10:47.521Z,99219.66
2023-02-02T04:13:50.258Z,99219.38
2023-02-02T04:16:53.189Z,99231.47
2023-02-02T04:19:58.488Z,99227.50
2023-02-02T04:23:01.577Z,99226.34
2023-02-02T04:26:04.678Z,99220.41
2023-02-02T04:29:07.233Z,99228.91
2023-02-02T04:32:10.158Z,99224.06
2023-02-02T04:35:14.272Z,99230.31
2023-02-02T04:38:17.019Z,99236.41
2023-02-02T04:41:19.751Z,99238.91
2023-02-02T04:44:22.625Z,99236.34
2023-02-02T04:47:25.834Z,99240.94
2023-02-02T04:50:30.130Z,99256.34
2023-02-02T04:53:33.342Z,99243.47
2023-02-02T04:56:36.216Z,99243.28
2023-02-02T04:59:41.147Z,99251.28
2023-02-02T05:02:44.891Z,99248.63
2023-02-02T05:05:48.775Z,99249.59
2023-02-02T05:08:51.525Z,99256.53
2023-02-02T05:11:54.259Z,99261.66
2023-02-02T05:14:56.949Z,99261.09
2023-02-02T05:17:59.544Z,99261.84
2023-02-02T05:21:04.375Z,99268.81
2023-02-02T05:24:07.476Z,99272.88
2023-02-02T05:27:10.238Z,99280.78
2023-02-02T05:30:13.997Z,99274.19
2023-02-02T05:33:18.352Z,99283.47
2023-02-02T05:36:22.444Z,99278.81
2023-02-02T05:39:25.304Z,99272.91
2023-02-02T05:42:28.252Z,99264.06
2023-02-02T05:45:30.917Z,99268.63
2023-02-02T05:48:33.776Z,99266.19
2023-02-02T05:51:40.662Z,99269.44
2023-02-02T05:54:43.448Z,99282.50
2023-02-02T05:57:46.139Z,99273.31
2023-02-02T06:00:49.152Z,99288.00
2023-02-02T06:03:52.116Z,99253.44
2023-02-02T06:06:56.162Z,99260.75
2023-02-02T06:09:59.311Z,99274.94
2023-02-02T06:13:02.016Z,99253.78
2023-02-02T06:16:05.117Z,99269.16
2023-02-02T06:19:07.886Z,99278.16
2023-02-02T06:22:12.052Z,99283.63
2023-02-02T06:25:20.198Z,99284.44
2023-02-02T06:28:22.996Z,99297.19
2023-02-02T06:31:25.860Z,99294.97
2023-02-02T06:34:28.764Z,99303.63
2023-02-02T06:37:34.148Z,99307.22
2023-02-02T06:40:37.132Z,99293.53
2023-02-02T06:43:41.018Z,99298.94
2023-02-02T06:46:43.864Z,99309.28
2023-02-02T06:49:46.649Z,99312.34
2023-02-02T06:52:50.826Z,99315.75
2023-02-02T06:55:54.642Z,99317.91
2023-02-02T06:58:57.389Z,99315.22
2023-02-02T07:02:00.124Z,99318.78
2023-02-02T07:05:02.941Z,99301.22
2023-02-02T07:08:07.069Z,99301.88
2023-02-02T07:11:15.605Z,99308.75
2023-02-02T07:14:19.079Z,99314.47
2023-02-02T07:17:22.048Z,99318.81
2023-02-02T07:20:24.980Z,99311.78
2023-02-02T07:23:30.583Z,99317.34
2023-02-02T07:26:34.685Z,99312.28
2023-02-02T07:29:37.487Z,99329.25
2023-02-02T07:32:40.292Z,99326.59
2023-02-02T07:35:43.080Z,99331.63
2023-02-02T07:38:48.125Z,99328.91
2023-02-02T07:41:50.790Z,99336.44
2023-02-02T07:44:53.443Z,99330.25
2023-02-02T07:47:59.231Z,99338.16
2023-02-02T07:51:02.259Z,99333.03
2023-02-02T07:54:06.786Z,99335.38
2023-02-02T07:57:09.668Z,99331.66
2023-02-02T08:00:13.441Z,99323.19
2023-02-02T08:03:16.076Z,99308.75
2023-02-02T08:06:20.762Z,99313.53
2023-02-02T08:09:24.946Z,99316.91
2023-02-02T08:12:28.312Z,99312.78
2023-02-02T08:15:30.933Z,99314.78
2023-02-02T08:18:33.897Z,99331.06
2023-02-02T08:21:36.936Z,99336.69
2023-02-02T08:24:42.984Z,99350.66
2023-02-02T08:27:45.559Z,99364.75
2023-02-02T08:30:48.567Z,99359.31
2023-02-02T08:33:53.937Z,99363.69
2023-02-02T08:36:56.836Z,99378.81
2023-02-02T08:40:00.974Z,99375.03
2023-02-02T08:43:04.552Z,99381.81
2023-02-02T08:46:08.617Z,99386.78
2023-02-02T08:49:14.252Z,99383.63
2023-02-02T08:52:16.775Z,99385.53
2023-02-02T08:55:20.792Z,99399.03
2023-02-02T08:58:23.676Z,99407.97
2023-02-02T09:01:27.637Z,99407.59
2023-02-02T09:04:30.647Z,99414.34
2023-02-02T09:07:33.367Z,99410.13
2023-02-02T09:10:38.561Z,99428.97
2023-02-02T09:13:42.623Z,99419.63
2023-02-02T09:16:45.449Z,99423.63
2023-02-02T09:19:48.205Z,99408.22
2023-02-02T09:22:50.877Z,99412.59
2023-02-02T09:25:55.164Z,99415.03
2023-02-02T09:28:58.982Z,99415.25
2023-02-02T09:32:01.763Z,99411.84
2023-02-02T09:35:04.748Z,99415.59
2023-02-02T09:38:07.463Z,99426.38
2023-02-02T09:41:24.795Z,99433.16
2023-02-02T09:44:46.777Z,99413.16
2023-02-02T09:47:55.447Z,99433.34
2023-02-02T09:50:59.709Z,99433.78
2023-02-02T09:54:06.245Z,99432.63
2023-02-02T09:57:16.232Z,99439.69
2023-02-02T10:00:27.269Z,99436.81
2023-02-02T10:03:33.425Z,99451.16
2023-02-02T10:06:38.987Z,99452.03
2023-02-02T10:09:48.425Z,99446.63
2023-02-02T10:12:55.812Z,99454.50
2023-02-02T10:16:04.326Z,99440.38
2023-02-02T10:19:10.911Z,99452.31
2023-02-02T10:22:16.882Z,99451.69
2023-02-02T10:25:21.972Z,99461.63
2023-02-02T10:28:47.319Z,99461.25
2023-02-02T10:31:57.246Z,99450.84
2023-02-02T10:35:13.967Z,99453.66
2023-02-02T10:38:21.627Z,99461.16
2023-02-02T10:41:30.241Z,99464.91
2023-02-02T10:44:38.698Z,99464.31
2023-02-02T10:47:41.279Z,99459.88
2023-02-02T10:50:45.452Z,99463.31
2023-02-02T10:53:52.754Z,99457.88
2023-02-02T10:56:57.265Z,99467.13
2023-02-02T11:00:22.361Z,99458.16
2023-02-02T11:03:28.455Z,99470.28
2023-02-02T11:06:48.665Z,99472.84
2023-02-02T11:09:52.972Z,99461.75
2023-02-02T11:12:57.401Z,99459.03
2023-02-02T11:16:23.846Z,99453.59
2023-02-02T11:19:29.787Z,99452.16
2023-02-02T11:22:34.905Z,99470.38
2023-02-02T11:25:39.566Z,99451.19
2023-02-02T11:28:42.333Z,99454.19
2023-02-02T11:31:46.889Z,99456.97
2023-02-02T11:34:49.620Z,99450.44
2023-02-02T11:38:02.209Z,99454.38
2023-02-02T11:41:09.047Z,99449.91
2023-02-02T11:44:20.488Z,99437.19
2023-02-02T11:47:28.087Z,99447.88
2023-02-02T11:50:31.043Z,99438.97
2023-02-02T11:53:35.622Z,99447.81
2023-02-02T11:56:39.618Z,99462.38
2023-02-02T11:59:43.568Z,99452.75
2023-02-02T12:02:49.510Z,99439.53
2023-02-02T12:05:52.636Z,99453.56
2023-02-02T12:08:58.745Z,99445.09
2023-02-02T12:12:05.661Z,99443.13
2023-02-02T12:15:19.877Z,99440.28
2023-02-02T12:18:38.152Z,99447.28
2023-02-02T12:21:46.449Z,99448.25
2023-02-02T12:24:53.179Z,99448.84
2023-02-02T12:27:59.624Z,99443.53
2023-02-02T12:31:08.600Z,99456.25
2023-02-02T12:34:21.034Z,99440.03
2023-02-02T12:37:33.138Z,99459.94
2023-02-02T12:41:06.411Z,99449.34
2023-02-02T12:44:15.762Z,99441.53
2023-02-02T12:47:22.221Z,99441.75
2023-02-02T12:50:31.362Z,99448.88
2023-02-02T12:54:33.594Z,99448.91
2023-02-02T12:57:17.904Z,99450.00
2023-02-02T13:00:38.412Z,99453.25
2023-02-02T13:03:53.525Z,99442.47
2023-02-02T13:07:15.605Z,99454.44
2023-02-02T13:10:24.644Z,99446.81
2023-02-02T13:13:31.342Z,99449.00
2023-02-02T13:16:37.427Z,99453.59
2023-02-02T13:19:42.248Z,99457.72
2023-02-02T13:22:46.773Z,99458.78
2023-02-02T13:25:51.788Z,99452.75
2023-02-02T13:28:58.962Z,99458.41
2023-02-02T13:32:05.682Z,99460.22
2023-02-02T13:35:17.469Z,99469.84
2023-02-02T13:38:24.729Z,99467.03
2023-02-02T13:41:28.323Z,99469.97
2023-02-02T13:44:33.727Z,99459.94
2023-02-02T13:47:39.016Z,99465.75
2023-02-02T13:50:48.775Z,99483.19
2023-02-02T13:54:20.898Z,99480.59
2023-02-02T13:57:38.351Z,99496.81
2023-02-02T14:00:42.736Z,99504.19
2023-02-02T14:03:52.749Z,99488.88
2023-02-02T14:06:57.579Z,99506.06
2023-02-02T14:10:01.741Z,99488.41
2023-02-02T14:13:35.235Z,99491.63
2023-02-02T14:16:52.346Z,99489.63
2023-02-02T14:19:56.154Z,99493.09
2023-02-02T14:22:58.637Z,99496.09
2023-02-02T14:26:10.319Z,99497.59
2023-02-02T14:29:40.619Z,99493.28
2023-02-02T14:32:44.126Z,99489.81
2023-02-02T14:36:05.093Z,99489.00
2023-02-02T14:39:20.314Z,99498.06
2023-02-02T14:42:50.835Z,99515.09
2023-02-02T14:46:22.376Z,99525.66
2023-02-02T14:49:29.830Z,99508.81
2023-02-02T14:52:32.769Z,99507.16
2023-02-02T14:55:37.383Z,99503.00
2023-02-02T14:58:45.931Z,99503.00
2023-02-02T15:01:57.319Z,99508.41
2023-02-02T15:05:38.762Z,99518.84
2023-02-02T15:08:41.933Z,99511.78
2023-02-02T15:12:19.058Z,99508.28
2023-02-02T15:15:25.468Z,99507.03
2023-02-02T15:18:33.310Z,99515.44
2023-02-02T15:21:37.500Z,99514.53
2023-02-02T15:24:40.328Z,99510.09
2023-02-02T15:27:56.694Z,99526.28
2023-02-02T15:31:03.878Z,99526.56
2023-02-02T15:34:15.024Z,99535.91
2023-02-02T15:37:21.535Z,99529.97
2023-02-02T15:40:25.828Z,99545.75
2023-02-02T15:43:29.032Z,99546.91
2023-02-02T15:46:35.701Z,99544.03
2023-02-02T15:49:38.491Z,99542.56
2023-02-02T15:52:46.988Z,99538.97
2023-02-02T15:55:49.756Z,99545.84
2023-02-02T15:58:54.725Z,99559.69
2023-02-02T16:02:07.016Z,99576.22
2023-02-02T16:05:25.536Z,99582.28
2023-02-02T16:08:34.221Z,99591.94
2023-02-02T16:11:42.565Z,99595.44
2023-02-02T16:14:46.349Z,99602.91
2023-02-02T16:18:00.699Z,99605.50
2023-02-02T16:21:25.158Z,99616.09
2023-02-02T16:24:31.507Z,99622.09
2023-02-02T16:27:34.727Z,99629.00
2023-02-02T16:30:39.512Z,99645.25
2023-02-02T16:33:44.546Z,99652.03
2023-02-02T16:37:05.355Z,99668.69
2023-02-02T16:40:22.542Z,99680.13
2023-02-02T16:43:29.858Z,99669.50
2023-02-02T16:46:44.698Z,99679.28
2023-02-02T16:49:48.906Z,99681.72
2023-02-02T16:52:53.626Z,99687.97
2023-02-02T16:55:57.880Z,99698.31
2023-02-02T16:59:03.486Z,99704.25
2023-02-02T17:02:21.052Z,99730.97
2023-02-02T17:05:29.150Z,99723.59
2023-02-02T17:08:33.983Z,99731.59
2023-02-02T17:11:37.111Z,99728.59
2023-02-02T17:14:52.415Z,99733.75
2023-02-02T17:17:55.182Z,99728.50
2023-02-02T17:21:04.147Z,99734.53
2023-02-02T17:24:07.419Z,99737.84
2023-02-02T17:27:14.713Z,99732.94
2023-02-02T17:30:19.723Z,99756.31
2023-02-02T17:33:22.584Z,99744.38
2023-02-02T17:36:26.703Z,99754.72
2023-02-02T17:39:29.404Z,99773.22
2023-02-02T17:42:36.029Z,99767.22
2023-02-02T17:45:38.977Z,99765.09
2023-02-02T17:48:42.033Z,99761.81
2023-02-02T17:51:45.971Z,99756.38
2023-02-02T17:54:48.906Z,99761.81
2023-02-02T17:57:53.169Z,99771.34
2023-02-02T18:00:59.102Z,99778.63
2023-02-02T18:04:01.974Z,99786.00
2023-02-02T18:07:07.808Z,99794.97
2023-02-02T18:10:12.513Z,99794.69
2023-02-02T18:13:16.510Z,99799.31
2023-02-02T18:16:19.837Z,99787.34
2023-02-02T18:19:22.610Z,99789.00
2023-02-02T18:22:27.230Z,99793.63
2023-02-02T18:25:30.540Z,99799.91
2023-02-02T18:28:34.949Z,99809.13
2023-02-02T18:31:38.433Z,99787.91
2023-02-02T18:34:43.449Z,99790.91
2023-02-02T18:37:49.781Z,99797.97
2023-02-02T18:40:56.137Z,99798.78
2023-02-02T18:44:00.222Z,99791.41
2023-02-02T18:47:02.834Z,99792.78
2023-02-02T18:50:06.177Z,99796.34
2023-02-02T18:53:10.353Z,99798.78
2023-02-02T18:56:14.378Z,99800.69
2023-02-02T18:59:17.247Z,99795.78
2023-02-02T19:02:21.597Z,99792.28
2023-02-02T19:05:41.742Z,99798.25
2023-02-02T19:08:46.022Z,99802.31
2023-02-02T19:11:50.481Z,99796.63
2023-02-02T19:14:53.110Z,99807.50
2023-02-02T19:17:56.300Z,99808.31
2023-02-02T19:20:58.914Z,99791.47
2023-02-02T19:24:02.813Z,99818.13
2023-02-02T19:27:12.204Z,99807.50
2023-02-02T19:30:20.202Z,99808.59
2023-02-02T19:33:24.574Z,99811.03
2023-02-02T19:36:28.469Z,99797.44
2023-02-02T19:39:32.790Z,99799.59
2023-02-02T19:42:35.573Z,99808.59
2023-02-02T19:45:39.698Z,99803.69
2023-02-02T19:48:43.244Z,99805.59
2023-02-02T19:51:47.156Z,99804.78
2023-02-02T19:54:51.474Z,99800.44
2023-02-02T19:57:55.371Z,99813.22
2023-02-02T20:00:58.509Z,99801.81
2023-02-02T20:04:04.043Z,99792.25
2023-02-02T20:07:11.566Z,99794.97
2023-02-02T20:10:22.186Z,99800.16
2023-02-02T20:13:25.805Z,99804.50
2023-02-02T20:16:37.250Z,99791.44
2023-02-02T20:19:42.620Z,99796.63
2023-02-02T20:22:45.426Z,99785.47
2023-02-02T20:25:49.337Z,99787.91
2023-02-02T20:28:53.415Z,99781.41
2023-02-02T20:31:58.177Z,99784.66
2023-02-02T20:35:01.051Z,99783.06
2023-02-02T20:38:04.095Z,99784.66
2023-02-02T20:41:08.340Z,99772.72
2023-02-02T20:44:11.018Z,99755.06
2023-02-02T20:47:13.702Z,99755.34
2023-02-02T20:50:19.264Z,99761.56
2023-02-02T20:53:22.374Z,99759.69
2023-02-02T20:56:26.694Z,99770.53
2023-02-02T20:59:29.527Z,99774.31
2023-02-02T21:02:33.216Z,99779.75
2023-02-02T21:05:36.373Z,99786.00
2023-02-02T21:08:39.669Z,99782.75
2023-02-02T21:11:43.997Z,99792.25
2023-02-02T21:14:47.011Z,99779.75
2023-02-02T21:17:49.994Z,99786.03
2023-02-02T21:20:52.699Z,99804.22
2023-02-02T21:23:56.289Z,99799.31
2023-02-02T21:27:02.202Z,99799.31
2023-02-02T21:30:05.436Z,99793.88
2023-02-02T21:33:08.377Z,99796.88
2023-02-02T21:36:24.465Z,99801.25
2023-02-02T21:39:30.221Z,99802.59
2023-02-02T21:42:35.485Z,99806.69
2023-02-02T21:45:39.671Z,99805.59
2023-02-02T21:48:42.539Z,99800.16
2023-02-02T21:51:45.417Z,99811.28
2023-02-02T21:54:48.844Z,99808.31
2023-02-02T21:57:53.088Z,99805.06
2023-02-02T22:00:59.541Z,99800.44
2023-02-02T22:04:02.276Z,99809.13
2023-02-02T22:07:13.186Z,99808.06
2023-02-02T22:10:37.232Z,99814.03
2023-02-02T22:13:41.515Z,99808.88
2023-02-02T22:16:45.752Z,99802.59
2023-02-02T22:19:48.773Z,99809.66
2023-02-02T22:22:52.784Z,99808.59
2023-02-02T22:25:56.692Z,99810.22
2023-02-02T22:29:00.672Z,99812.94
2023-02-02T22:32:03.969Z,99805.88
2023-02-02T22:35:06.951Z,99811.84
2023-02-02T22:38:10.096Z,99799.34
2023-02-02T22:41:12.805Z,99803.72
2023-02-02T22:44:16.799Z,99794.47
2023-02-02T22:47:19.371Z,99810.50
2023-02-02T22:50:24.118Z,99809.69
2023-02-02T22:53:27.270Z,99804.78
2023-02-02T22:56:29.948Z,99796.09
2023-02-02T22:59:33.875Z,99796.63
2023-02-02T23:02:36.487Z,99798.81
2023-02-02T23:05:39.174Z,99798.78
2023-02-02T23:08:42.005Z,99791.44
2023-02-02T23:11:45.605Z,99794.97
2023-02-02T23:14:49.746Z,99804.22
2023-02-02T23:17:52.744Z,99808.56
2023-02-02T23:20:55.327Z,99813.47
2023-02-02T23:23:58.089Z,99831.41
2023-02-02T23:27:00.793Z,99833.28
2023-02-02T23:30:05.967Z,99848.50
2023-02-02T23:33:08.566Z,99851.44
2023-02-02T23:36:11.335Z,99852.00
2023-02-02T23:39:14.011Z,99842.25
2023-02-02T23:42:16.676Z,99849.28
2023-02-02T23:45:20.622Z,99845.25
2023-02-02T23:48:23.247Z,99839.78
2023-02-02T23:51:26.036Z,99850.09
2023-02-02T23:54:29.033Z,99851.22
2023-02-02T23:57:33.713Z,99854.19
